Time;durP1;ratioP1;P1;durP2;ratioP2;P2;SDS_P1;SDS_P2;PMS_P1;PMS_P2;Temp;Humidity;BMP_temperature;BMP_pressure;BME280_temperature;BME280_humidity;BME280_pressure;Samples;Min_cycle;Max_cycle;Signal;HPM_P1;HPM_P2
2022/10/23 00:01:55;;;;;;;10.30;3.83;;;13.30;99.90;;;;;;5093028;28;20073;-80
2022/10/23 00:04:24;;;;;;;7.75;3.85;;;13.30;99.90;;;;;;5092925;28;20107;-81
2022/10/23 00:06:50;;;;;;;8.13;3.70;;;13.30;99.90;;;;;;5092458;28;20044;-81
2022/10/23 00:09:19;;;;;;;10.93;4.22;;;13.30;99.90;;;;;;5092567;28;20078;-81
2022/10/23 00:11:46;;;;;;;12.13;4.20;;;13.30;99.90;;;;;;5093450;28;20052;-80
2022/10/23 00:14:13;;;;;;;7.82;3.95;;;13.30;99.90;;;;;;5091599;28;20035;-85
2022/10/23 00:16:39;;;;;;;14.38;3.90;;;13.30;99.90;;;;;;5092004;28;20128;-80
2022/10/23 00:19:05;;;;;;;9.55;3.35;;;13.30;99.90;;;;;;5093661;28;20061;-82
2022/10/23 00:21:31;;;;;;;11.82;3.55;;;13.20;99.90;;;;;;5080458;28;20035;-77
2022/10/23 00:23:56;;;;;;;8.23;3.15;;;13.20;99.90;;;;;;5092418;28;20020;-88
2022/10/23 00:26:22;;;;;;;6.88;2.63;;;13.20;99.90;;;;;;5093089;28;20389;-82
2022/10/23 00:28:50;;;;;;;4.65;2.22;;;13.20;99.90;;;;;;5090536;28;20113;-85
2022/10/23 00:31:17;;;;;;;5.65;2.50;;;13.20;99.90;;;;;;5091264;28;20028;-83
2022/10/23 00:33:42;;;;;;;6.90;2.65;;;13.10;99.90;;;;;;5089810;28;20073;-83
2022/10/23 00:36:10;;;;;;;4.63;2.03;;;13.10;99.90;;;;;;5092923;28;20029;-84
2022/10/23 00:38:37;;;;;;;4.63;2.10;;;13.20;99.90;;;;;;5092433;28;20115;-83
2022/10/23 00:41:04;;;;;;;9.32;2.05;;;13.10;99.90;;;;;;5093122;28;20028;-85
2022/10/23 00:43:30;;;;;;;7.72;2.58;;;13.10;99.90;;;;;;5092421;28;20115;-84
2022/10/23 00:45:57;;;;;;;4.88;2.20;;;13.10;99.90;;;;;;5093498;28;20028;-84
2022/10/23 00:48:24;;;;;;;4.65;2.30;;;13.10;99.90;;;;;;5093872;28;20024;-84
2022/10/23 00:50:50;;;;;;;10.65;3.08;;;13.10;99.90;;;;;;5091622;28;20020;-83
2022/10/23 00:53:19;;;;;;;7.70;2.85;;;13.10;99.90;;;;;;5092453;28;20480;-82
2022/10/23 00:55:46;;;;;;;6.20;2.90;;;13.00;99.90;;;;;;5091991;28;20024;-83
2022/10/23 00:58:18;;;;;;;6.28;2.53;;;13.00;99.90;;;;;;5095066;28;20060;-85
2022/10/23 01:00:51;;;;;;;11.63;2.58;;;13.00;99.90;;;;;;5096405;28;20032;-84
2022/10/23 01:03:19;;;;;;;6.65;2.25;;;12.90;99.90;;;;;;5097849;28;20088;-85
2022/10/23 01:06:26;;;;;;;9.75;2.78;;;12.90;99.90;;;;;;5097229;28;20036;-84
2022/10/23 01:09:16;;;;;;;7.13;2.25;;;12.90;99.90;;;;;;5096235;28;20071;-84
2022/10/23 01:12:12;;;;;;;5.70;2.55;;;12.80;99.90;;;;;;5097121;28;20024;-84
2022/10/23 01:14:59;;;;;;;5.68;2.60;;;12.80;99.90;;;;;;5065106;28;20036;-84
2022/10/23 01:17:54;;;;;;;4.32;2.10;;;12.80;99.90;;;;;;5096331;28;20060;-85
2022/10/23 01:20:34;;;;;;;11.60;2.63;;;12.80;99.90;;;;;;5065450;28;20113;-85
2022/10/23 01:23:18;;;;;;;4.03;2.30;;;12.70;99.90;;;;;;5096297;28;20034;-85
2022/10/23 01:25:54;;;;;;;4.47;2.10;;;12.60;99.90;;;;;;5096472;28;20080;-84
2022/10/23 01:28:35;;;;;;;6.82;2.03;;;12.70;99.90;;;;;;5096144;28;20253;-85
2022/10/23 01:31:03;;;;;;;5.07;2.10;;;12.60;99.90;;;;;;5095754;28;20024;-85
2022/10/23 01:33:41;;;;;;;18.77;2.30;;;12.60;99.90;;;;;;5097307;28;20024;-85
2022/10/23 01:36:12;;;;;;;5.82;1.85;;;12.60;99.90;;;;;;5095991;28;20132;-85
2022/10/23 01:38:52;;;;;;;8.57;2.17;;;12.50;99.90;;;;;;5095598;28;20036;-81
2022/10/23 01:41:28;;;;;;;5.65;2.22;;;12.50;99.90;;;;;;5096302;28;20051;-84
2022/10/23 01:44:03;;;;;;;11.70;2.10;;;12.50;99.90;;;;;;5095652;28;20111;-84
2022/10/23 01:46:30;;;;;;;4.60;2.15;;;12.50;99.90;;;;;;5096214;28;20024;-83
2022/10/23 01:48:59;;;;;;;7.88;1.88;;;12.50;99.90;;;;;;5095404;28;20024;-83
2022/10/23 01:51:27;;;;;;;5.05;2.30;;;12.50;99.90;;;;;;5095841;28;20047;-83
2022/10/23 01:53:57;;;;;;;5.47;2.45;;;12.50;99.90;;;;;;5095997;28;20028;-83
2022/10/23 01:56:31;;;;;;;6.50;1.95;;;12.40;99.90;;;;;;5095339;28;20024;-83
2022/10/23 01:59:00;;;;;;;6.28;2.50;;;12.50;99.90;;;;;;5096141;28;20073;-83
2022/10/23 02:01:29;;;;;;;5.78;2.03;;;12.40;99.90;;;;;;5095749;28;20032;-83
2022/10/23 02:03:56;;;;;;;7.22;2.67;;;12.40;99.90;;;;;;5095160;28;20029;-84
2022/10/23 02:06:22;;;;;;;13.02;2.17;;;12.50;99.90;;;;;;5096991;28;20036;-84
2022/10/23 02:08:48;;;;;;;3.47;1.88;;;12.50;99.90;;;;;;5093738;28;20476;-83
2022/10/23 02:11:16;;;;;;;8.40;2.70;;;12.50;99.90;;;;;;5095391;28;20028;-84
2022/10/23 02:13:54;;;;;;;8.00;2.10;;;12.50;99.90;;;;;;5094890;28;20115;-83
2022/10/23 02:16:38;;;;;;;3.40;2.00;;;12.50;99.90;;;;;;5096433;28;20027;-83
2022/10/23 02:19:10;;;;;;;6.32;2.22;;;12.50;99.90;;;;;;5096144;28;20072;-83
2022/10/23 02:21:47;;;;;;;5.93;2.35;;;12.40;99.90;;;;;;5095438;28;20377;-82
2022/10/23 02:24:17;;;;;;;6.63;2.15;;;12.30;99.90;;;;;;5096472;28;20091;-82
2022/10/23 02:26:52;;;;;;;9.45;2.45;;;12.30;99.90;;;;;;5094725;28;20055;-83
2022/10/23 02:29:39;;;;;;;6.10;2.17;;;12.40;99.90;;;;;;5115531;28;20040;-83
2022/10/23 02:32:08;;;;;;;10.57;2.25;;;12.30;99.90;;;;;;5097917;28;20047;-82
2022/10/23 02:34:34;;;;;;;6.43;1.80;;;12.40;99.90;;;;;;5116382;28;20023;-84
2022/10/23 02:37:00;;;;;;;5.03;1.90;;;12.40;99.90;;;;;;5115878;28;20093;-84
2022/10/23 02:39:27;;;;;;;5.53;2.10;;;12.40;99.90;;;;;;5098157;28;20115;-84
2022/10/23 02:41:56;;;;;;;4.55;1.70;;;12.30;99.90;;;;;;5097722;28;20023;-84
2022/10/23 02:44:26;;;;;;;7.65;1.95;;;12.30;99.90;;;;;;5098441;28;20173;-84
2022/10/23 02:47:09;;;;;;;3.95;1.70;;;12.30;99.90;;;;;;5097696;28;20031;-84
2022/10/23 02:49:49;;;;;;;4.97;1.50;;;12.30;99.90;;;;;;5116527;28;20031;-84
2022/10/23 02:53:09;;;;;;;5.63;1.67;;;12.30;99.90;;;;;;5098379;28;20030;-84
2022/10/23 02:55:37;;;;;;;6.38;1.70;;;12.40;99.90;;;;;;4997288;28;20041;-84
2022/10/23 02:58:29;;;;;;;3.80;1.60;;;12.40;99.90;;;;;;5090391;28;20063;-84
2022/10/23 03:01:04;;;;;;;6.40;2.15;;;12.30;99.90;;;;;;5097545;28;20024;-84
2022/10/23 03:03:34;;;;;;;3.47;1.60;;;12.30;99.90;;;;;;5097878;28;20024;-84
2022/10/23 03:06:00;;;;;;;6.00;2.05;;;12.20;99.90;;;;;;5097170;28;20032;-84
2022/10/23 03:08:26;;;;;;;6.75;1.90;;;12.10;99.90;;;;;;5097934;28;20027;-84
2022/10/23 03:10:51;;;;;;;7.50;2.95;;;12.20;99.90;;;;;;5097294;28;20030;-85
2022/10/23 03:13:17;;;;;;;5.68;2.45;;;12.20;99.90;;;;;;5098119;28;20020;-84
2022/10/23 03:15:43;;;;;;;9.18;2.53;;;12.10;99.90;;;;;;5114903;28;20456;-80
2022/10/23 03:18:08;;;;;;;4.05;2.15;;;12.10;99.90;;;;;;5097415;28;20024;-84
2022/10/23 03:20:34;;;;;;;6.13;2.17;;;12.20;99.90;;;;;;5115478;28;20516;-84
2022/10/23 03:23:00;;;;;;;5.07;1.98;;;12.20;99.90;;;;;;5097008;28;20036;-85
2022/10/23 03:25:25;;;;;;;2.80;1.63;;;12.30;99.90;;;;;;5115217;28;20034;-85
2022/10/23 03:27:51;;;;;;;4.65;1.80;;;12.30;99.90;;;;;;5096491;28;20051;-85
2022/10/23 03:30:17;;;;;;;6.00;1.98;;;12.30;99.90;;;;;;5115494;28;20149;-84
2022/10/23 03:32:42;;;;;;;3.35;1.55;;;12.30;99.90;;;;;;5097294;28;20035;-80
2022/10/23 03:35:08;;;;;;;6.78;2.08;;;12.30;99.90;;;;;;5114927;28;20027;-84
2022/10/23 03:37:34;;;;;;;7.10;1.83;;;12.40;99.90;;;;;;5096793;28;20034;-84
2022/10/23 03:39:59;;;;;;;5.45;1.80;;;12.40;99.90;;;;;;5096424;28;20063;-84
2022/10/23 03:42:25;;;;;;;4.55;1.70;;;12.50;99.90;;;;;;5097313;28;20028;-84
2022/10/23 03:44:50;;;;;;;5.68;2.08;;;12.50;99.90;;;;;;5096380;28;20028;-84
2022/10/23 03:47:17;;;;;;;5.05;1.90;;;12.50;99.90;;;;;;5096881;28;20085;-83
2022/10/23 03:49:42;;;;;;;6.40;1.70;;;12.50;99.90;;;;;;5094131;28;20024;-79
2022/10/23 03:52:08;;;;;;;4.50;1.70;;;12.50;99.90;;;;;;5079733;28;20030;-83
2022/10/23 03:54:34;;;;;;;6.53;1.92;;;12.50;99.90;;;;;;5081029;28;20028;-82
2022/10/23 03:57:00;;;;;;;5.78;1.58;;;12.50;99.90;;;;;;5113296;28;20078;-82
2022/10/23 03:59:26;;;;;;;5.35;1.65;;;12.60;99.90;;;;;;5079542;28;20070;-82
2022/10/23 04:01:52;;;;;;;6.57;1.73;;;12.60;99.90;;;;;;5092610;28;20720;-82
2022/10/23 04:04:17;;;;;;;4.65;1.45;;;12.60;99.90;;;;;;5096394;28;20028;-83
2022/10/23 04:06:44;;;;;;;7.25;1.42;;;12.70;99.90;;;;;;5095982;28;20061;-80
2022/10/23 04:09:09;;;;;;;2.63;1.40;;;12.60;99.90;;;;;;5095133;28;20024;-83
2022/10/23 04:11:35;;;;;;;2.97;1.70;;;12.70;99.90;;;;;;5094072;28;20077;-84
2022/10/23 04:14:01;;;;;;;5.03;1.60;;;12.70;99.90;;;;;;5083155;28;20026;-85
2022/10/23 04:16:27;;;;;;;6.38;1.50;;;12.80;99.90;;;;;;5096546;28;20049;-86
2022/10/23 04:18:52;;;;;;;7.25;1.80;;;12.80;99.90;;;;;;5096215;28;20032;-85
2022/10/23 04:21:18;;;;;;;7.97;2.20;;;12.80;99.90;;;;;;5110304;28;20024;-85
2022/10/23 04:23:44;;;;;;;8.52;1.95;;;12.80;99.90;;;;;;5113518;28;20032;-81
2022/10/23 04:26:09;;;;;;;9.70;1.80;;;12.60;99.90;;;;;;5095636;28;20035;-84
2022/10/23 04:28:35;;;;;;;6.63;1.70;;;12.50;99.90;;;;;;5082708;28;20039;-87
2022/10/23 04:31:01;;;;;;;6.75;1.92;;;12.60;99.90;;;;;;5091082;28;20447;-85
2022/10/23 04:33:26;;;;;;;6.10;1.92;;;12.60;99.90;;;;;;5094974;28;20396;-86
2022/10/23 04:35:52;;;;;;;6.55;1.60;;;12.70;99.90;;;;;;5088633;28;20484;-86
2022/10/23 04:38:17;;;;;;;4.55;1.52;;;12.80;99.90;;;;;;5085902;28;20058;-86
2022/10/23 04:40:43;;;;;;;6.50;1.98;;;12.70;99.90;;;;;;5096281;28;20461;-79
2022/10/23 04:43:09;;;;;;;7.35;1.45;;;12.80;99.90;;;;;;5078220;28;20469;-84
2022/10/23 04:45:34;;;;;;;6.55;1.95;;;12.70;99.90;;;;;;5095929;28;20023;-83
2022/10/23 04:48:00;;;;;;;3.10;1.65;;;12.80;99.90;;;;;;5105408;28;20031;-84
2022/10/23 04:50:26;;;;;;;4.20;1.65;;;12.80;99.90;;;;;;5094277;28;20479;-83
2022/10/23 04:52:55;;;;;;;5.45;1.83;;;12.80;99.90;;;;;;5080044;28;20024;-84
2022/10/23 04:55:21;;;;;;;5.70;2.00;;;12.80;99.90;;;;;;5077703;28;20461;-84
2022/10/23 04:57:47;;;;;;;7.78;1.70;;;12.80;99.90;;;;;;5095080;28;20034;-79
2022/10/23 05:00:14;;;;;;;6.25;2.10;;;12.90;99.90;;;;;;5096024;28;20027;-84
2022/10/23 05:02:40;;;;;;;4.45;1.80;;;12.80;99.90;;;;;;5095924;28;20397;-84
2022/10/23 05:05:06;;;;;;;5.63;1.52;;;12.90;99.90;;;;;;5078260;28;20024;-83
2022/10/23 05:07:33;;;;;;;7.32;1.85;;;13.00;99.90;;;;;;5075565;28;20028;-84
2022/10/23 05:09:58;;;;;;;4.93;1.85;;;13.00;99.90;;;;;;5081983;28;20020;-84
2022/10/23 05:12:25;;;;;;;5.93;1.88;;;13.00;99.90;;;;;;5084802;28;20081;-84
2022/10/23 05:14:51;;;;;;;8.07;2.25;;;13.00;99.90;;;;;;5094740;28;20056;-84
2022/10/23 05:17:22;;;;;;;6.28;1.90;;;13.00;99.90;;;;;;5078534;28;20063;-84
2022/10/23 05:19:54;;;;;;;7.03;2.30;;;12.90;99.90;;;;;;5091127;28;20081;-79
2022/10/23 05:22:24;;;;;;;17.65;7.78;;;12.90;99.90;;;;;;5095318;28;20030;-84
2022/10/23 05:24:50;;;;;;;18.80;6.60;;;12.90;99.90;;;;;;5094626;28;20115;-82
2022/10/23 05:27:15;;;;;;;18.95;7.53;;;12.80;99.90;;;;;;5095137;28;20424;-83
2022/10/23 05:29:41;;;;;;;8.52;3.65;;;12.80;99.90;;;;;;5096037;28;20024;-83
2022/10/23 05:32:10;;;;;;;5.60;2.58;;;12.80;99.90;;;;;;5086078;28;20016;-85
2022/10/23 05:34:37;;;;;;;4.55;2.25;;;12.80;99.90;;;;;;5075197;28;20063;-86
2022/10/23 05:37:06;;;;;;;5.68;2.20;;;12.80;99.90;;;;;;5090583;28;20031;-86
2022/10/23 05:39:32;;;;;;;6.32;2.20;;;12.90;99.90;;;;;;5091333;28;20058;-85
2022/10/23 05:41:58;;;;;;;9.27;2.30;;;12.80;99.90;;;;;;5074303;28;20025;-85
2022/10/23 05:44:24;;;;;;;4.40;1.98;;;12.90;99.90;;;;;;5088766;28;20046;-85
2022/10/23 05:46:49;;;;;;;3.58;2.00;;;12.80;99.90;;;;;;5116945;28;20028;-84
2022/10/23 05:49:15;;;;;;;5.13;2.30;;;12.80;99.90;;;;;;5097336;28;20024;-86
2022/10/23 05:51:41;;;;;;;4.65;2.00;;;12.70;99.90;;;;;;5096904;28;20047;-87
2022/10/23 05:54:07;;;;;;;6.07;1.80;;;12.60;99.90;;;;;;5098633;28;20227;-88
2022/10/23 05:56:38;;;;;;;8.68;2.20;;;12.60;99.90;;;;;;5098999;28;20024;-87
2022/10/23 05:59:06;;;;;;;6.95;2.20;;;12.60;99.90;;;;;;5116341;28;20027;-87
2022/10/23 06:01:32;;;;;;;4.70;2.13;;;12.50;99.90;;;;;;5082054;28;20031;-87
2022/10/23 06:03:59;;;;;;;4.50;2.03;;;12.50;99.90;;;;;;5098348;28;20020;-87
2022/10/23 06:06:24;;;;;;;6.30;2.22;;;12.50;99.90;;;;;;5087782;28;20032;-85
2022/10/23 06:08:50;;;;;;;8.85;1.92;;;12.60;99.90;;;;;;5077862;28;20020;-85
2022/10/23 06:11:16;;;;;;;4.78;1.95;;;12.60;99.90;;;;;;5079516;28;20027;-86
2022/10/23 06:13:43;;;;;;;4.43;1.88;;;12.50;99.90;;;;;;5092931;28;20044;-86
2022/10/23 06:16:17;;;;;;;6.80;2.00;;;12.50;99.90;;;;;;5104350;28;20085;-87
2022/10/23 06:18:44;;;;;;;4.82;2.53;;;12.50;99.90;;;;;;5102326;28;20461;-87
2022/10/23 06:21:10;;;;;;;6.38;2.10;;;12.50;99.90;;;;;;5094174;28;20064;-87
2022/10/23 06:23:38;;;;;;;6.43;2.00;;;12.50;99.90;;;;;;5094199;28;20020;-87
2022/10/23 06:26:04;;;;;;;4.50;1.90;;;12.50;99.90;;;;;;5077279;28;20020;-87
2022/10/23 06:28:30;;;;;;;4.60;1.95;;;12.50;99.90;;;;;;5086864;28;20044;-88
2022/10/23 06:30:56;;;;;;;6.20;2.10;;;12.50;99.90;;;;;;5097724;28;20024;-84
2022/10/23 06:33:21;;;;;;;6.53;2.55;;;12.50;99.90;;;;;;5099422;28;20083;-85
2022/10/23 06:35:47;;;;;;;7.93;2.20;;;12.60;99.90;;;;;;5097844;28;20038;-79
2022/10/23 06:38:13;;;;;;;2.17;1.63;;;12.60;99.90;;;;;;5097836;28;20384;-85
2022/10/23 06:40:38;;;;;;;7.82;2.22;;;12.60;99.90;;;;;;5097981;28;20052;-85
2022/10/23 06:43:04;;;;;;;5.93;2.70;;;12.60;99.90;;;;;;5098447;28;20036;-86
2022/10/23 06:45:32;;;;;;;4.43;1.88;;;12.50;99.90;;;;;;5080856;28;20045;-85
2022/10/23 06:47:58;;;;;;;9.02;2.22;;;12.50;99.90;;;;;;5093842;28;20388;-85
2022/10/23 06:50:24;;;;;;;7.25;2.13;;;12.50;99.90;;;;;;5103005;28;20053;-85
2022/10/23 06:52:50;;;;;;;6.78;2.40;;;12.60;99.90;;;;;;5097070;28;20437;-84
2022/10/23 06:55:17;;;;;;;4.93;1.80;;;12.50;99.90;;;;;;5095201;28;20119;-85
2022/10/23 06:57:43;;;;;;;3.72;1.70;;;12.50;99.90;;;;;;5115493;28;20039;-84
2022/10/23 07:00:09;;;;;;;8.10;2.00;;;12.60;99.90;;;;;;5096925;28;20028;-85
2022/10/23 07:02:34;;;;;;;9.05;2.50;;;12.70;99.90;;;;;;5102801;28;20046;-85
2022/10/23 07:05:00;;;;;;;4.50;2.05;;;12.70;99.90;;;;;;5096628;28;20028;-85
2022/10/23 07:07:28;;;;;;;4.28;1.92;;;12.80;99.90;;;;;;5096822;28;20384;-84
2022/10/23 07:09:54;;;;;;;5.18;2.00;;;12.80;99.90;;;;;;5093297;28;20041;-85
2022/10/23 07:12:19;;;;;;;5.57;1.98;;;12.90;99.90;;;;;;5097476;28;20028;-85
2022/10/23 07:14:45;;;;;;;6.10;2.00;;;12.90;99.90;;;;;;5097428;28;20157;-85
2022/10/23 07:17:10;;;;;;;2.83;1.88;;;13.00;99.90;;;;;;5093456;28;20028;-85
2022/10/23 07:19:36;;;;;;;3.30;2.00;;;13.10;99.90;;;;;;5097032;28;20028;-84
2022/10/23 07:22:01;;;;;;;7.30;2.17;;;13.10;99.90;;;;;;5096488;28;20020;-85
2022/10/23 07:24:27;;;;;;;4.80;2.00;;;13.10;99.90;;;;;;5096894;28;20480;-85
2022/10/23 07:26:53;;;;;;;5.78;2.20;;;13.20;99.90;;;;;;5093166;28;20039;-84
2022/10/23 07:29:18;;;;;;;3.95;1.83;;;13.20;99.90;;;;;;5093616;28;20052;-85
2022/10/23 07:31:44;;;;;;;4.45;1.90;;;13.30;99.90;;;;;;5093771;28;20470;-85
2022/10/23 07:34:10;;;;;;;4.32;1.67;;;13.30;99.90;;;;;;5081003;28;20065;-85
2022/10/23 07:36:35;;;;;;;5.80;2.00;;;13.30;99.90;;;;;;5093077;28;20032;-84
2022/10/23 07:39:01;;;;;;;6.45;2.45;;;13.40;99.90;;;;;;5087542;28;20024;-84
2022/10/23 07:41:26;;;;;;;4.43;2.30;;;13.40;99.90;;;;;;5091464;28;20054;-85
2022/10/23 07:43:52;;;;;;;4.00;1.90;;;13.40;99.90;;;;;;5114300;28;20028;-84
2022/10/23 07:46:18;;;;;;;6.60;1.90;;;13.50;99.90;;;;;;5093057;28;20430;-85
2022/10/23 07:48:43;;;;;;;5.68;2.60;;;13.50;99.90;;;;;;5096674;28;20035;-85
2022/10/23 07:51:14;;;;;;;15.32;8.43;;;13.60;99.90;;;;;;5095090;28;20031;-83
2022/10/23 07:53:40;;;;;;;4.95;2.90;;;13.60;99.90;;;;;;5079586;28;20050;-84
2022/10/23 07:56:26;;;;;;;3.85;2.30;;;13.60;99.90;;;;;;5093570;28;20028;-85
2022/10/23 07:58:55;;;;;;;4.60;2.30;;;13.60;99.90;;;;;;5075787;28;20077;-86
2022/10/23 08:01:35;;;;;;;4.35;1.90;;;13.60;99.90;;;;;;5089552;28;20093;-90
2022/10/23 08:04:01;;;;;;;2.50;1.92;;;13.60;99.90;;;;;;5113729;28;20027;-85
2022/10/23 08:06:27;;;;;;;3.38;1.95;;;13.70;99.90;;;;;;5106684;28;20032;-84
2022/10/23 08:08:52;;;;;;;5.03;1.90;;;13.70;99.90;;;;;;5095482;28;20110;-85
2022/10/23 08:11:25;;;;;;;3.83;1.90;;;13.70;99.90;;;;;;5095872;28;20095;-87
2022/10/23 08:13:52;;;;;;;4.97;2.15;;;13.70;99.90;;;;;;5095039;28;20026;-86
2022/10/23 08:16:17;;;;;;;3.72;1.65;;;13.80;99.90;;;;;;5113837;28;20032;-85
2022/10/23 08:18:44;;;;;;;6.75;2.50;;;13.80;99.90;;;;;;5096426;28;20023;-84
2022/10/23 08:21:10;;;;;;;5.95;2.17;;;13.80;99.90;;;;;;5094361;28;20028;-81
2022/10/23 08:23:37;;;;;;;6.97;2.15;;;13.90;99.90;;;;;;5113422;28;20038;-81
2022/10/23 08:26:05;;;;;;;4.15;1.88;;;13.90;99.90;;;;;;5074381;28;20115;-81
2022/10/23 08:28:31;;;;;;;4.38;2.20;;;14.00;99.90;;;;;;5085460;28;20052;-78
2022/10/23 08:30:57;;;;;;;13.07;3.38;;;14.00;99.90;;;;;;5084171;28;20037;-79
2022/10/23 08:33:23;;;;;;;3.63;1.90;;;14.10;99.90;;;;;;5092419;28;20028;-79
2022/10/23 08:35:49;;;;;;;4.90;1.75;;;14.20;99.90;;;;;;5088473;28;20032;-83
2022/10/23 08:38:15;;;;;;;5.60;1.58;;;14.20;99.90;;;;;;5091061;28;20032;-81
2022/10/23 08:40:46;;;;;;;5.47;1.92;;;14.20;99.90;;;;;;5090055;28;20036;-82
2022/10/23 08:43:19;;;;;;;4.18;1.73;;;14.30;99.90;;;;;;5085555;28;20081;-80
2022/10/23 08:46:03;;;;;;;4.47;1.38;;;14.30;99.90;;;;;;5088381;28;20036;-79
2022/10/23 08:48:41;;;;;;;4.63;1.48;;;14.40;99.90;;;;;;5089291;28;20554;-80
2022/10/23 08:51:13;;;;;;;20.27;1.70;;;14.40;99.90;;;;;;5088506;28;20115;-81
2022/10/23 08:54:00;;;;;;;2.63;1.60;;;14.50;99.90;;;;;;5090050;28;20483;-80
2022/10/23 08:56:40;;;;;;;5.78;1.90;;;14.60;99.90;;;;;;5090331;28;20039;-80
2022/10/23 08:59:27;;;;;;;4.30;2.20;;;14.80;99.90;;;;;;5084577;28;20093;-78
2022/10/23 09:02:18;;;;;;;73.10;5.68;;;14.80;99.90;;;;;;5090432;28;20115;-80
2022/10/23 09:04:49;;;;;;;6.70;2.10;;;15.00;99.90;;;;;;5091557;28;20024;-80
2022/10/23 09:07:33;;;;;;;5.25;2.17;;;15.00;99.90;;;;;;5089811;28;20342;-78
2022/10/23 09:10:17;;;;;;;3.95;1.77;;;15.00;99.90;;;;;;5091727;28;20066;-78
2022/10/23 09:12:42;;;;;;;4.68;2.13;;;15.10;99.90;;;;;;5090978;28;20020;-76
2022/10/23 09:15:17;;;;;;;3.85;1.80;;;15.10;99.90;;;;;;5090968;28;20109;-78
2022/10/23 09:17:43;;;;;;;5.20;2.25;;;15.10;99.90;;;;;;5085361;28;20035;-78
2022/10/23 09:20:13;;;;;;;7.90;2.30;;;15.20;99.90;;;;;;5093496;28;20024;-77
2022/10/23 09:22:40;;;;;;;3.83;2.17;;;15.20;99.90;;;;;;5094245;28;20027;-79
2022/10/23 09:25:14;;;;;;;3.40;1.80;;;15.20;99.90;;;;;;5093550;28;20024;-81
2022/10/23 09:27:49;;;;;;;3.63;1.70;;;15.30;99.90;;;;;;5100201;28;20039;-79
2022/10/23 09:30:35;;;;;;;6.95;1.95;;;15.40;99.90;;;;;;5091305;28;20024;-79
2022/10/23 09:33:25;;;;;;;5.45;1.75;;;15.40;99.90;;;;;;5076695;28;20048;-75
2022/10/23 09:35:54;;;;;;;4.07;2.10;;;15.50;99.90;;;;;;5094600;28;20055;-78
2022/10/23 09:38:27;;;;;;;7.22;2.25;;;15.50;99.90;;;;;;5085899;28;20031;-76
2022/10/23 09:40:52;;;;;;;5.50;2.08;;;15.50;99.90;;;;;;5105113;28;20027;-78
2022/10/23 09:43:24;;;;;;;8.70;1.98;;;15.60;99.90;;;;;;5101475;28;20026;-78
2022/10/23 09:46:01;;;;;;;;;;;15.70;99.90;;;;;;5088305;28;20092;-80
2022/10/23 09:48:27;;;;;;;8.63;2.40;;;15.90;99.90;;;;;;5112798;28;20484;-78
2022/10/23 09:51:01;;;;;;;5.20;2.50;;;16.10;99.90;;;;;;5087008;28;20024;-78
2022/10/23 09:53:32;;;;;;;5.65;2.03;;;16.20;99.90;;;;;;5100195;28;20024;-78
2022/10/23 09:56:21;;;;;;;8.85;2.22;;;16.30;99.90;;;;;;5108789;28;20031;-78
2022/10/23 09:58:57;;;;;;;5.22;1.75;;;16.40;99.90;;;;;;5097734;28;20024;-78
2022/10/23 10:01:25;;;;;;;9.40;2.03;;;16.60;99.90;;;;;;5115383;28;20115;-78
2022/10/23 10:03:52;;;;;;;3.38;2.10;;;16.60;99.90;;;;;;5080838;28;20536;-83
2022/10/23 10:06:23;;;;;;;4.20;2.05;;;16.50;99.90;;;;;;5097817;28;20076;-78
2022/10/23 10:08:52;;;;;;;6.70;1.73;;;16.60;99.90;;;;;;5097674;28;20148;-86
2022/10/23 10:11:44;;;;;;;7.03;2.00;;;16.60;99.90;;;;;;5098074;28;20122;-78
2022/10/23 10:14:29;;;;;;;4.03;1.97;;;16.60;99.90;;;;;;5097029;28;20664;-78
2022/10/23 10:17:05;;;;;;;3.97;1.55;;;16.70;99.90;;;;;;5097020;28;20030;-78
2022/10/23 10:19:52;;;;;;;4.00;1.50;;;16.70;99.90;;;;;;5096941;28;20043;-79
2022/10/23 10:22:33;;;;;;;3.38;1.83;;;16.70;99.90;;;;;;5093548;28;20138;-78
2022/10/23 10:25:20;;;;;;;2.40;1.75;;;16.70;99.90;;;;;;5076736;28;20418;-78
2022/10/23 10:27:51;;;;;;;3.10;1.70;;;16.70;99.90;;;;;;5101606;28;20047;-77
2022/10/23 10:30:21;;;;;;;2.72;1.80;;;16.80;99.90;;;;;;5095874;28;20070;-77
2022/10/23 10:33:07;;;;;;;4.82;1.83;;;16.80;99.90;;;;;;5096666;28;20024;-79
2022/10/23 10:35:46;;;;;;;4.05;1.60;;;16.90;99.90;;;;;;5094822;28;20036;-76
2022/10/23 10:38:24;;;;;;;5.97;1.58;;;16.80;99.90;;;;;;5095301;28;20039;-78
2022/10/23 10:41:22;;;;;;;4.03;1.30;;;16.80;99.90;;;;;;5087657;28;20031;-83
2022/10/23 10:44:28;;;;;;;2.10;1.15;;;16.90;99.90;;;;;;5094457;28;20118;-77
2022/10/23 10:46:58;;;;;;;4.80;1.40;;;16.90;99.90;;;;;;5094055;28;20020;-78
2022/10/23 10:49:37;;;;;;;1.92;1.33;;;17.10;99.90;;;;;;5114493;28;20024;-77
2022/10/23 10:52:27;;;;;;;2.80;1.23;;;17.00;99.90;;;;;;5095436;28;20088;-77
2022/10/23 10:55:16;;;;;;;3.80;1.52;;;17.10;99.90;;;;;;5092775;28;20040;-78
2022/10/23 10:58:04;;;;;;;3.45;1.30;;;17.40;99.90;;;;;;5110887;28;20032;-76
2022/10/23 11:00:32;;;;;;;1.50;1.05;;;17.50;99.90;;;;;;5087093;28;20092;-76
2022/10/23 11:03:01;;;;;;;3.20;1.50;;;17.60;99.90;;;;;;5090522;28;20121;-76
2022/10/23 11:05:39;;;;;;;2.95;1.23;;;17.70;99.90;;;;;;5081870;28;20024;-77
2022/10/23 11:08:28;;;;;;;2.38;1.40;;;17.80;99.90;;;;;;5085817;28;20377;-76
2022/10/23 11:11:00;;;;;;;2.13;1.17;;;17.90;99.90;;;;;;5081127;28;20028;-77
2022/10/23 11:13:35;;;;;;;2.53;1.35;;;17.90;99.90;;;;;;5090953;28;20460;-76
2022/10/23 11:16:13;;;;;;;3.92;2.03;;;17.80;99.90;;;;;;5084777;28;20053;-76
2022/10/23 11:18:50;;;;;;;2.00;0.98;;;17.90;99.90;;;;;;5082358;28;20031;-77
2022/10/23 11:21:16;;;;;;;2.65;1.40;;;17.70;99.90;;;;;;5107215;28;20106;-76
2022/10/23 11:23:57;;;;;;;3.83;1.45;;;17.70;99.90;;;;;;5088130;28;20114;-77
2022/10/23 11:26:41;;;;;;;2.55;0.95;;;17.70;99.90;;;;;;5089898;28;20380;-77
2022/10/23 11:29:19;;;;;;;1.80;1.20;;;17.70;99.90;;;;;;5081785;28;20063;-76
2022/10/23 11:32:02;;;;;;;1.67;1.05;;;17.80;99.90;;;;;;5085875;28;20043;-76
2022/10/23 11:34:52;;;;;;;3.22;1.40;;;17.80;99.90;;;;;;5085745;28;20132;-77
2022/10/23 11:37:19;;;;;;;3.55;1.10;;;17.80;99.90;;;;;;5094896;28;20094;-77
2022/10/23 11:40:21;;;;;;;3.83;1.20;;;17.80;99.90;;;;;;5110344;28;20050;-77
2022/10/23 11:42:48;;;;;;;4.00;1.30;;;17.80;99.90;;;;;;5087484;28;20024;-78
2022/10/23 11:45:37;;;;;;;2.08;1.20;;;17.80;99.90;;;;;;5080950;28;20039;-79
2022/10/23 11:48:35;;;;;;;3.13;1.10;;;17.80;99.90;;;;;;5088207;28;20028;-78
2022/10/23 11:51:02;;;;;;;3.38;1.08;;;17.90;99.90;;;;;;5086153;28;20019;-78
2022/10/23 11:53:31;;;;;;;3.97;1.10;;;18.00;99.90;;;;;;5095235;28;20228;-78
2022/10/23 11:55:57;;;;;;;4.15;1.15;;;18.10;99.90;;;;;;5088435;28;20191;-78
2022/10/23 11:58:40;;;;;;;4.63;1.20;;;18.10;99.90;;;;;;5081087;28;20031;-78
2022/10/23 12:01:18;;;;;;;3.95;1.23;;;18.10;99.90;;;;;;5094430;28;20380;-79
2022/10/23 12:04:02;;;;;;;3.15;1.10;;;18.20;99.90;;;;;;5094950;28;20027;-77
2022/10/23 12:06:37;;;;;;;1.50;1.20;;;18.30;99.90;;;;;;5078242;28;20177;-78
2022/10/23 12:09:16;;;;;;;2.75;1.23;;;18.40;99.90;;;;;;5088052;28;20023;-78
2022/10/23 12:12:07;;;;;;;3.55;1.17;;;18.40;99.90;;;;;;5086970;28;20236;-78
2022/10/23 12:14:45;;;;;;;1.53;0.90;;;18.60;99.90;;;;;;5082591;28;20114;-78
2022/10/23 12:17:23;;;;;;;1.92;1.17;;;18.80;99.90;;;;;;5087082;28;20291;-78
2022/10/23 12:19:54;;;;;;;1.55;1.05;;;19.00;99.90;;;;;;5077428;28;20036;-78
2022/10/23 12:22:23;;;;;;;2.97;0.90;;;19.20;99.90;;;;;;5088491;28;20028;-78
2022/10/23 12:25:04;;;;;;;2.83;1.00;;;19.40;99.90;;;;;;5080570;28;20075;-78
2022/10/23 12:27:56;;;;;;;16.85;1.48;;;19.70;99.90;;;;;;5086195;28;20139;-78
2022/10/23 12:30:30;;;;;;;3.65;1.40;;;19.90;99.90;;;;;;5078088;28;20116;-78
2022/10/23 12:33:08;;;;;;;3.47;1.20;;;20.00;99.90;;;;;;5085573;28;20024;-79
2022/10/23 12:35:52;;;;;;;6.00;1.30;;;20.30;99.90;;;;;;5086830;28;20062;-78
2022/10/23 12:38:21;;;;;;;5.15;1.20;;;20.60;99.90;;;;;;5083060;28;20032;-80
2022/10/23 12:40:55;;;;;;;2.63;1.10;;;20.70;99.90;;;;;;5072413;28;20110;-80
2022/10/23 12:43:26;;;;;;;3.45;0.90;;;20.80;99.90;;;;;;5091560;28;20032;-79
2022/10/23 12:45:52;;;;;;;2.13;1.30;;;20.60;99.90;;;;;;5085708;28;20471;-80
2022/10/23 12:48:23;;;;;;;5.07;1.25;;;20.50;99.90;;;;;;5092178;28;20054;-77
2022/10/23 12:50:55;;;;;;;1.13;0.85;;;20.40;99.90;;;;;;5083331;28;20031;-77
2022/10/23 12:53:22;;;;;;;4.13;1.20;;;20.30;99.90;;;;;;5087758;28;20124;-77
2022/10/23 12:56:00;;;;;;;2.83;1.10;;;20.40;99.90;;;;;;5090473;28;20085;-77
2022/10/23 12:58:31;;;;;;;3.45;1.05;;;20.50;99.90;;;;;;5082223;28;20032;-79
2022/10/23 13:01:03;;;;;;;1.00;0.80;;;20.50;99.90;;;;;;5090882;28;20032;-78
2022/10/23 13:03:37;;;;;;;4.30;1.00;;;20.80;99.90;;;;;;5081227;28;20481;-78
2022/10/23 13:06:03;;;;;;;4.22;1.20;;;21.30;99.90;;;;;;5081883;28;20028;-77
2022/10/23 13:08:46;;;;;;;3.28;1.35;;;21.60;99.90;;;;;;5079739;28;20043;-76